Nashville International Airport
KBNA : now visible

Airfield :











YOU CAN JOIN US ON...

 
LOGIN :

Register | Disclaimer

   EN    FR    IT 

 









Legend :    VFR   Marginal VFR   IFR   Intensive IFR   Very Intensive IFR
Visi :
Ceiling :
>= 8 km
>= 3000ft
5 to 8 km
1000 to 3000 ft
1500m to 5 km
500 to 1000 ft
800 to 1500m
200 to 500 ft
< 800m
< 200 ft
Symbols :   Thunderstorms  Fog  Heavy snow  Heavy precipitations  Wind > 20 kt






- Airport Elevation : 599 ft
- IATA code : BNA


KBNA - Nashville International

CURRENT METAR :
  • 071653Z 29009G16KT 10SM FEW055 18/04 A3017 RMK AO2 SLP213 T01830039

EXPIRED METARs :
  • 071553Z 30008KT 10SM FEW050 17/04 A3018 RMK AO2 SLP216 T01720039
  • 071453Z 31008KT 10SM CLR 16/03 A3018 RMK AO2 SLP218 T01560033 50009

TAF KBNA
Valid from the 07 at 12:00 until the 08 at 12:00 UTC


071127Z 0712/0812 32008KT P6SM FEW250
FM071500 31009G17KT P6SM SCT050
FM080000 23007KT P6SM BKN150
FM080900 35005KT P6SM OVC060
KZME FIR / North America



MET'MAP, your aeronautical weather chart ! - Copyright ORBIFLY December 2007 - Disclaimer

ORBIFLY MET'MAP TEAM :

Programming & Development : Alexandra Zaïnal
Concept & original design : Baudouin d'Aumeries
Assistance for programming : Marc-Olivier Méhu
Technical & hardware support : Manuel Goepfert

Contact : metmap@orbifly.com




SOURCES & CREDITS :

   NOAA       Earth
Advisory